Time;durP1;ratioP1;P1;durP2;ratioP2;P2;SDS_P1;SDS_P2;PMS_P1;PMS_P2;Temp;Humidity;BMP_temperature;BMP_pressure;BME280_temperature;BME280_humidity;BME280_pressure;Samples;Min_cycle;Max_cycle;Signal;HPM_P1;HPM_P2
2023/04/18 03:56:49;;;;;;;11.18;9.60;;;6.20;99.90;;;;;;6203904;22;21666;-71
2023/04/18 03:59:18;;;;;;;9.82;8.85;;;6.20;99.90;;;;;;6187358;23;20638;-71
2023/04/18 04:01:44;;;;;;;11.90;9.80;;;6.20;99.90;;;;;;6187057;23;20252;-71
2023/04/18 04:04:13;;;;;;;13.00;11.15;;;6.20;99.90;;;;;;6186943;23;20184;-71
2023/04/18 04:06:40;;;;;;;11.68;10.48;;;6.10;99.90;;;;;;6187182;23;20198;-71
2023/04/18 04:09:07;;;;;;;13.32;11.45;;;6.20;99.90;;;;;;6187298;23;20173;-71
2023/04/18 04:11:34;;;;;;;12.25;10.50;;;6.20;99.90;;;;;;6204363;22;20204;-70
2023/04/18 04:14:01;;;;;;;14.65;11.25;;;6.20;99.90;;;;;;6218895;23;20251;-71
2023/04/18 04:16:29;;;;;;;13.50;10.00;;;6.20;99.90;;;;;;6217262;23;20264;-71
2023/04/18 04:18:55;;;;;;;15.07;11.20;;;6.20;99.90;;;;;;6217645;23;20176;-71
2023/04/18 04:21:22;;;;;;;11.55;9.98;;;6.20;99.90;;;;;;6217396;23;20192;-72
2023/04/18 04:23:49;;;;;;;12.95;10.85;;;6.20;99.90;;;;;;6217170;23;20552;-72
2023/04/18 04:26:16;;;;;;;11.43;9.68;;;6.20;99.90;;;;;;6216977;23;20177;-72
2023/04/18 04:28:45;;;;;;;11.55;10.05;;;6.20;99.90;;;;;;6217014;23;20176;-72
2023/04/18 04:31:12;;;;;;;12.35;10.57;;;6.30;99.90;;;;;;6216897;23;20200;-72
2023/04/18 04:33:41;;;;;;;14.55;10.90;;;6.20;99.90;;;;;;6217182;23;20157;-72
2023/04/18 04:36:08;;;;;;;12.70;10.52;;;6.20;99.90;;;;;;6217394;23;20552;-72
2023/04/18 04:38:37;;;;;;;12.23;10.48;;;6.20;99.90;;;;;;6217004;23;20172;-73
2023/04/18 04:41:05;;;;;;;11.50;10.35;;;6.10;99.90;;;;;;6216956;23;20276;-72
2023/04/18 04:43:32;;;;;;;12.07;9.85;;;6.20;99.90;;;;;;6216981;23;20234;-72
2023/04/18 04:45:59;;;;;;;13.35;10.10;;;6.10;99.90;;;;;;6216869;23;20177;-72
2023/04/18 04:48:25;;;;;;;11.88;9.32;;;6.10;99.90;;;;;;6216894;23;20557;-72
2023/04/18 04:50:55;;;;;;;15.95;11.10;;;6.20;99.90;;;;;;6216390;23;20654;-72
2023/04/18 04:53:22;;;;;;;12.00;10.07;;;6.20;99.90;;;;;;6216794;23;20211;-73
2023/04/18 04:55:49;;;;;;;12.68;10.05;;;6.20;99.90;;;;;;6217315;23;20184;-73
2023/04/18 04:58:15;;;;;;;13.52;10.38;;;6.20;99.90;;;;;;6216853;23;20188;-73
2023/04/18 05:00:42;;;;;;;13.63;10.05;;;6.20;99.90;;;;;;6216914;23;20192;-73
2023/04/18 05:03:10;;;;;;;12.25;9.98;;;6.20;99.90;;;;;;6216818;23;20180;-73
2023/04/18 05:05:36;;;;;;;17.13;11.65;;;6.20;99.90;;;;;;6216377;23;20630;-73
2023/04/18 05:08:05;;;;;;;11.60;9.60;;;6.20;99.90;;;;;;6216779;23;20181;-73
2023/04/18 05:10:33;;;;;;;12.68;10.07;;;6.20;99.90;;;;;;6227132;23;20208;-73
2023/04/18 05:13:00;;;;;;;14.00;11.10;;;6.20;99.90;;;;;;6241549;23;20161;-74
2023/04/18 05:15:26;;;;;;;13.93;10.95;;;6.20;99.90;;;;;;6243106;23;20161;-72
2023/04/18 05:17:53;;;;;;;11.98;9.75;;;6.20;99.90;;;;;;6243744;22;20161;-72
2023/04/18 05:20:20;;;;;;;14.98;10.80;;;6.20;99.90;;;;;;6237761;22;20169;-72
2023/04/18 05:22:46;;;;;;;13.02;9.95;;;6.20;99.90;;;;;;6217242;23;20173;-72
2023/04/18 05:25:14;;;;;;;11.98;9.93;;;6.20;99.90;;;;;;6217043;23;20184;-72
2023/04/18 05:27:42;;;;;;;12.20;9.43;;;6.20;99.90;;;;;;6216370;23;20660;-72
2023/04/18 05:30:10;;;;;;;9.82;8.82;;;6.20;99.90;;;;;;6216649;23;20553;-72
2023/04/18 05:32:37;;;;;;;12.18;9.32;;;6.30;99.90;;;;;;6216690;23;20216;-72
2023/04/18 05:35:05;;;;;;;10.68;9.30;;;6.30;99.90;;;;;;6216429;23;20227;-72
2023/04/18 05:37:32;;;;;;;11.85;10.32;;;6.30;99.90;;;;;;6216381;23;20177;-72
2023/04/18 05:39:58;;;;;;;11.85;9.63;;;6.30;99.90;;;;;;6216465;23;20176;-72
2023/04/18 05:42:26;;;;;;;10.85;9.10;;;6.30;99.90;;;;;;6216250;23;20670;-72
2023/04/18 05:44:53;;;;;;;12.63;9.80;;;6.30;99.90;;;;;;6216521;23;20176;-72
2023/04/18 05:47:20;;;;;;;14.23;10.60;;;6.30;99.90;;;;;;6216535;23;20177;-72
2023/04/18 05:49:46;;;;;;;13.73;10.32;;;6.30;99.90;;;;;;6216447;23;20235;-72
2023/04/18 05:52:13;;;;;;;11.48;9.77;;;6.30;99.90;;;;;;6216187;23;20196;-72
2023/04/18 05:54:40;;;;;;;11.80;9.57;;;6.40;99.90;;;;;;6216576;23;20172;-72
2023/04/18 05:57:06;;;;;;;11.43;9.55;;;6.40;99.90;;;;;;6216577;23;20177;-72
2023/04/18 05:59:34;;;;;;;11.55;9.70;;;6.40;99.90;;;;;;6216325;23;20176;-72
2023/04/18 06:02:01;;;;;;;13.63;10.68;;;6.30;99.90;;;;;;6216334;23;20212;-72
2023/04/18 06:04:28;;;;;;;10.30;9.02;;;6.30;99.90;;;;;;6216339;23;20173;-72
2023/04/18 06:06:55;;;;;;;12.77;9.60;;;6.30;99.90;;;;;;6216699;23;20179;-72
2023/04/18 06:09:21;;;;;;;13.65;10.43;;;6.30;99.90;;;;;;6215860;23;20256;-72
2023/04/18 06:11:48;;;;;;;14.10;11.02;;;6.30;99.90;;;;;;6215786;23;20204;-72
2023/04/18 06:14:15;;;;;;;13.68;10.63;;;6.30;99.90;;;;;;6216264;23;20180;-72
2023/04/18 06:16:43;;;;;;;14.95;11.15;;;6.30;99.90;;;;;;6215881;23;20660;-73
2023/04/18 06:19:09;;;;;;;14.70;10.88;;;6.30;99.90;;;;;;6216169;23;20172;-72
2023/04/18 06:21:36;;;;;;;14.13;10.55;;;6.30;99.90;;;;;;6216231;23;20193;-72
2023/04/18 06:24:03;;;;;;;11.50;10.10;;;6.30;99.90;;;;;;6216252;23;20177;-72
2023/04/18 06:26:30;;;;;;;13.68;11.27;;;6.20;99.90;;;;;;6216355;23;20172;-72
2023/04/18 06:28:57;;;;;;;14.43;11.55;;;6.20;99.90;;;;;;6216112;23;20176;-72
2023/04/18 06:31:25;;;;;;;14.15;10.30;;;6.20;99.90;;;;;;6216280;23;20680;-74
2023/04/18 06:33:53;;;;;;;12.13;10.27;;;6.20;99.90;;;;;;6216148;23;20180;-73
2023/04/18 06:36:20;;;;;;;13.52;11.02;;;6.20;99.90;;;;;;6216719;23;20188;-73
2023/04/18 06:38:46;;;;;;;13.38;10.68;;;6.20;99.90;;;;;;6215853;23;20506;-73
2023/04/18 06:41:13;;;;;;;13.15;10.80;;;6.20;99.90;;;;;;6216377;23;20199;-73
2023/04/18 06:43:40;;;;;;;14.65;10.95;;;6.20;99.90;;;;;;6215643;23;20550;-73
2023/04/18 06:46:07;;;;;;;12.75;9.82;;;6.20;99.90;;;;;;6216040;23;20183;-73
2023/04/18 06:48:34;;;;;;;13.68;11.00;;;6.30;99.90;;;;;;6215672;23;20696;-73
2023/04/18 06:51:02;;;;;;;16.17;12.38;;;6.30;99.90;;;;;;6215532;23;20200;-73
2023/04/18 06:53:29;;;;;;;18.63;12.95;;;6.30;99.90;;;;;;6216398;23;20629;-73
2023/04/18 06:55:56;;;;;;;17.40;12.68;;;6.40;99.90;;;;;;6216082;23;20172;-73
2023/04/18 06:58:22;;;;;;;17.02;12.43;;;6.30;99.90;;;;;;6216051;23;20184;-72
2023/04/18 07:00:50;;;;;;;17.20;13.25;;;6.30;99.90;;;;;;6215395;23;20673;-72
2023/04/18 07:03:17;;;;;;;16.60;12.65;;;6.30;99.90;;;;;;6215925;23;20204;-72
2023/04/18 07:05:44;;;;;;;17.45;12.68;;;6.30;99.90;;;;;;6215846;23;20227;-72
2023/04/18 07:08:12;;;;;;;18.70;13.15;;;6.30;99.90;;;;;;6215887;23;20177;-72
2023/04/18 07:10:38;;;;;;;20.23;15.30;;;6.30;99.90;;;;;;6215532;23;20223;-72
2023/04/18 07:13:05;;;;;;;20.40;15.88;;;6.40;99.90;;;;;;6215682;23;20177;-72
2023/04/18 07:15:33;;;;;;;20.40;15.00;;;6.40;99.90;;;;;;6215804;23;20172;-72
2023/04/18 07:18:00;;;;;;;20.23;14.65;;;6.50;99.90;;;;;;6215797;23;20184;-72
2023/04/18 07:20:27;;;;;;;20.40;14.57;;;6.40;99.90;;;;;;6215334;23;20505;-72
2023/04/18 07:22:53;;;;;;;19.00;13.75;;;6.50;99.90;;;;;;6215778;23;20173;-72
2023/04/18 07:25:21;;;;;;;23.02;15.38;;;6.60;99.90;;;;;;6215725;23;20184;-72
2023/04/18 07:27:48;;;;;;;20.02;15.13;;;6.60;99.90;;;;;;6215778;23;20173;-72
2023/04/18 07:30:15;;;;;;;20.92;14.60;;;6.60;99.90;;;;;;6215670;23;20173;-72
2023/04/18 07:32:42;;;;;;;19.60;14.27;;;6.60;99.90;;;;;;6215763;23;20288;-72
2023/04/18 07:35:09;;;;;;;18.52;13.98;;;6.70;99.90;;;;;;6215690;23;20173;-72
2023/04/18 07:37:36;;;;;;;16.70;13.13;;;6.80;99.90;;;;;;6215676;23;20172;-72
2023/04/18 07:40:04;;;;;;;16.38;13.30;;;6.80;99.90;;;;;;6215733;23;20184;-72
2023/04/18 07:42:32;;;;;;;21.95;15.68;;;6.90;99.90;;;;;;6215561;23;20292;-73
2023/04/18 07:44:59;;;;;;;19.02;14.35;;;6.90;99.90;;;;;;6215703;23;20235;-73
2023/04/18 07:47:27;;;;;;;23.25;16.48;;;6.90;99.90;;;;;;6215659;23;20177;-73
2023/04/18 07:49:55;;;;;;;19.77;14.57;;;6.80;99.90;;;;;;6215702;23;20172;-73
2023/04/18 07:52:22;;;;;;;22.25;15.57;;;6.80;99.90;;;;;;6215486;23;20228;-72
2023/04/18 07:54:48;;;;;;;22.27;16.65;;;6.80;99.90;;;;;;6215341;23;20491;-73
2023/04/18 07:57:15;;;;;;;21.00;14.68;;;6.80;99.90;;;;;;6215926;23;20280;-73
2023/04/18 07:59:43;;;;;;;18.50;14.55;;;6.70;99.90;;;;;;6215770;23;20177;-73
2023/04/18 08:02:09;;;;;;;21.90;15.48;;;6.80;99.90;;;;;;6217109;23;20189;-73
2023/04/18 08:04:36;;;;;;;20.73;15.07;;;6.80;99.90;;;;;;6228458;23;20173;-72
2023/04/18 08:07:03;;;;;;;23.75;16.63;;;6.80;99.90;;;;;;6243258;23;20177;-72
2023/04/18 08:09:30;;;;;;;20.60;14.98;;;6.80;99.90;;;;;;6243710;23;20183;-72
2023/04/18 08:11:57;;;;;;;22.02;16.17;;;6.80;99.90;;;;;;6230776;23;20681;-72
2023/04/18 08:14:24;;;;;;;25.40;16.73;;;6.80;99.90;;;;;;6217312;23;20181;-72
2023/04/18 08:16:52;;;;;;;23.63;16.40;;;6.80;99.90;;;;;;6217627;23;20215;-72
2023/04/18 08:19:19;;;;;;;21.63;15.77;;;6.80;99.90;;;;;;6217393;23;20176;-72
2023/04/18 08:21:46;;;;;;;21.80;16.73;;;6.80;99.90;;;;;;6217448;23;20565;-72
2023/04/18 08:24:12;;;;;;;23.73;16.02;;;6.90;99.90;;;;;;6217310;23;20177;-72
2023/04/18 08:26:39;;;;;;;22.52;16.55;;;6.90;99.90;;;;;;6217151;23;20234;-72
2023/04/18 08:29:06;;;;;;;25.08;16.35;;;6.80;99.90;;;;;;6217176;23;20184;-72
2023/04/18 08:31:33;;;;;;;20.23;14.63;;;6.90;99.90;;;;;;6216533;23;20228;-73
2023/04/18 08:34:01;;;;;;;24.15;17.02;;;6.90;99.90;;;;;;6217070;23;20173;-73
2023/04/18 08:36:28;;;;;;;21.00;15.82;;;6.90;99.90;;;;;;6217040;23;20187;-73
2023/04/18 08:38:55;;;;;;;24.83;18.15;;;6.90;99.90;;;;;;6216685;23;20184;-73
2023/04/18 08:41:22;;;;;;;25.38;17.13;;;6.90;99.90;;;;;;6216939;23;20196;-73
2023/04/18 08:43:49;;;;;;;23.73;16.63;;;6.90;99.90;;;;;;6216942;23;20192;-72
2023/04/18 08:46:17;;;;;;;24.52;18.42;;;6.90;99.90;;;;;;6216972;23;20173;-72
2023/04/18 08:48:45;;;;;;;23.60;17.05;;;6.90;99.90;;;;;;6218191;23;20183;-73
2023/04/18 08:51:13;;;;;;;23.75;16.33;;;7.00;99.90;;;;;;6216393;23;20692;-73
2023/04/18 08:53:40;;;;;;;28.05;18.80;;;7.00;99.90;;;;;;6216842;23;20197;-73
2023/04/18 08:56:09;;;;;;;25.52;18.13;;;7.00;99.90;;;;;;6216943;23;20177;-73
2023/04/18 08:58:36;;;;;;;26.27;18.50;;;7.00;99.90;;;;;;6216897;23;20176;-73
2023/04/18 09:01:02;;;;;;;29.23;19.90;;;6.90;99.90;;;;;;6216824;23;20276;-73
2023/04/18 09:03:40;;;;;;;23.73;17.33;;;6.90;99.90;;;;;;6216873;23;20169;-73
2023/04/18 09:06:12;;;;;;;23.20;17.15;;;6.90;99.90;;;;;;6216765;23;20161;-73
2023/04/18 09:08:41;;;;;;;28.05;18.40;;;7.00;99.90;;;;;;6216434;23;20599;-73
2023/04/18 09:11:24;;;;;;;25.83;17.65;;;7.10;99.90;;;;;;6216226;23;20515;-74
2023/04/18 09:13:52;;;;;;;26.55;18.52;;;7.10;99.90;;;;;;6216299;23;20673;-74
2023/04/18 09:16:21;;;;;;;28.58;19.00;;;7.10;99.90;;;;;;6216673;23;20255;-73
2023/04/18 09:19:10;;;;;;;24.55;17.55;;;7.00;99.90;;;;;;6216702;23;20256;-73
2023/04/18 09:21:39;;;;;;;25.25;17.77;;;7.10;99.90;;;;;;6216575;23;20532;-72
2023/04/18 09:24:19;;;;;;;26.33;17.77;;;7.10;99.90;;;;;;6216557;23;20227;-73
2023/04/18 09:26:48;;;;;;;25.83;18.20;;;7.10;99.90;;;;;;6216212;23;20665;-73
2023/04/18 09:29:16;;;;;;;29.02;18.63;;;7.10;99.90;;;;;;6216310;23;20510;-74
2023/04/18 09:31:54;;;;;;;28.42;19.48;;;7.10;99.90;;;;;;6216582;23;20560;-74
2023/04/18 09:34:23;;;;;;;32.60;19.15;;;7.30;99.90;;;;;;6216873;23;20157;-73
2023/04/18 09:37:06;;;;;;;28.15;19.63;;;7.30;99.90;;;;;;6216235;23;20429;-73
2023/04/18 09:39:34;;;;;;;27.73;18.85;;;7.30;99.90;;;;;;6216489;23;20215;-73
2023/04/18 09:42:01;;;;;;;31.08;19.92;;;7.30;99.90;;;;;;6216519;23;20192;-73
2023/04/18 09:44:28;;;;;;;32.22;18.30;;;7.30;99.90;;;;;;6216653;23;20177;-73
2023/04/18 09:46:55;;;;;;;31.08;20.10;;;7.40;99.90;;;;;;6216095;23;20637;-73
2023/04/18 09:49:22;;;;;;;26.02;17.80;;;7.40;99.90;;;;;;6216380;23;20180;-73
2023/04/18 09:51:51;;;;;;;27.55;18.80;;;7.40;99.90;;;;;;6215903;23;20681;-73
2023/04/18 09:54:19;;;;;;;28.02;18.67;;;7.40;99.90;;;;;;6216621;23;20204;-74
2023/04/18 09:56:50;;;;;;;26.67;19.33;;;7.40;99.90;;;;;;6216350;23;20173;-73
2023/04/18 09:59:36;;;;;;;29.85;19.30;;;7.40;99.90;;;;;;6216421;23;20161;-73
2023/04/18 10:02:13;;;;;;;26.60;18.55;;;7.40;99.90;;;;;;6216328;23;20199;-73
2023/04/18 10:04:40;;;;;;;27.92;19.13;;;7.50;99.90;;;;;;6216331;23;20538;-73
2023/04/18 10:07:07;;;;;;;28.95;19.55;;;7.50;99.90;;;;;;6216533;23;20177;-73
2023/04/18 10:09:35;;;;;;;31.23;20.27;;;7.50;99.90;;;;;;6215914;23;20657;-73
2023/04/18 10:12:04;;;;;;;26.05;18.73;;;7.50;99.90;;;;;;6216252;23;20204;-73
2023/04/18 10:14:33;;;;;;;23.67;17.48;;;7.60;99.90;;;;;;6216161;23;20173;-73
2023/04/18 10:17:01;;;;;;;27.05;18.95;;;7.70;99.90;;;;;;6216229;23;20181;-73
2023/04/18 10:19:29;;;;;;;26.02;18.45;;;7.70;99.90;;;;;;6217355;23;20183;-74
2023/04/18 10:21:57;;;;;;;23.88;18.00;;;7.80;99.90;;;;;;6216173;23;20204;-75
2023/04/18 10:24:51;;;;;;;25.10;17.30;;;7.70;99.90;;;;;;6215336;23;20169;-74
2023/04/18 10:27:48;;;;;;;25.98;18.25;;;7.90;99.90;;;;;;6216180;23;20204;-74
2023/04/18 10:30:15;;;;;;;25.63;18.52;;;8.00;99.90;;;;;;6215834;23;20178;-74
2023/04/18 10:32:42;;;;;;;26.13;19.23;;;8.10;99.90;;;;;;6216823;23;20199;-75
2023/04/18 10:35:10;;;;;;;24.75;18.13;;;8.20;99.90;;;;;;6216168;23;20180;-75
2023/04/18 10:37:49;;;;;;;24.25;18.08;;;8.30;99.90;;;;;;6215919;23;20177;-75
2023/04/18 10:40:16;;;;;;;25.45;17.85;;;8.40;99.90;;;;;;6215844;23;20243;-74
2023/04/18 10:42:59;;;;;;;21.52;16.55;;;8.50;99.90;;;;;;6215613;23;20173;-74
2023/04/18 10:45:27;;;;;;;24.63;17.88;;;8.70;99.90;;;;;;6216013;23;20160;-74
2023/04/18 10:48:28;;;;;;;22.98;16.42;;;8.90;99.90;;;;;;6216120;23;20260;-74
2023/04/18 10:51:14;;;;;;;23.50;17.05;;;9.10;99.90;;;;;;6216166;23;20224;-74
2023/04/18 10:53:49;;;;;;;22.35;16.10;;;9.10;99.90;;;;;;6215986;23;20200;-74
2023/04/18 10:56:16;;;;;;;20.90;15.05;;;9.20;99.90;;;;;;6216298;23;20163;-75
2023/04/18 10:58:49;;;;;;;21.70;15.32;;;9.30;99.90;;;;;;6216441;23;20184;-75
2023/04/18 11:01:25;;;;;;;21.50;15.13;;;9.40;99.90;;;;;;6218125;23;20204;-73
2023/04/18 11:03:52;;;;;;;19.33;15.43;;;9.50;99.90;;;;;;6217032;23;20156;-73
2023/04/18 11:06:20;;;;;;;18.70;14.68;;;9.70;99.90;;;;;;6216351;23;20310;-73
2023/04/18 11:08:47;;;;;;;23.17;16.80;;;9.80;99.90;;;;;;6216102;23;20546;-74
2023/04/18 11:11:13;;;;;;;19.73;15.40;;;10.00;99.90;;;;;;6216303;23;20204;-74
2023/04/18 11:13:55;;;;;;;20.05;14.40;;;10.10;99.90;;;;;;6215920;23;20207;-74
2023/04/18 11:16:26;;;;;;;16.05;13.50;;;10.00;99.90;;;;;;6215967;23;20621;-74
2023/04/18 11:18:54;;;;;;;18.40;13.98;;;10.10;99.90;;;;;;6216437;23;20280;-74
2023/04/18 11:21:20;;;;;;;17.80;14.10;;;10.10;99.90;;;;;;6216224;23;20739;-73
2023/04/18 11:23:47;;;;;;;16.65;13.93;;;10.00;99.90;;;;;;6217862;23;20169;-74
2023/04/18 11:26:16;;;;;;;18.63;14.80;;;10.00;99.90;;;;;;6219562;23;20177;-74
2023/04/18 11:28:43;;;;;;;17.17;14.68;;;10.00;99.90;;;;;;6237339;23;20177;-73
2023/04/18 11:31:15;;;;;;;18.35;14.27;;;10.10;99.90;;;;;;6236574;23;20200;-73
2023/04/18 11:33:42;;;;;;;16.45;13.07;;;10.30;99.90;;;;;;6236466;23;20177;-73
2023/04/18 11:36:09;;;;;;;15.30;13.10;;;10.60;99.90;;;;;;6233625;23;20203;-73
2023/04/18 11:38:37;;;;;;;16.05;13.05;;;10.90;99.90;;;;;;6229945;23;20177;-73
2023/04/18 11:41:03;;;;;;;16.55;12.95;;;11.00;99.90;;;;;;6217711;23;20201;-73
2023/04/18 11:43:30;;;;;;;14.70;12.30;;;10.90;99.90;;;;;;6218583;23;20173;-73
2023/04/18 11:45:58;;;;;;;15.43;12.75;;;11.00;99.90;;;;;;6219070;23;20176;-74
2023/04/18 11:48:35;;;;;;;16.70;13.13;;;11.00;99.90;;;;;;6217791;23;20619;-74
2023/04/18 11:51:02;;;;;;;12.50;11.10;;;10.90;99.90;;;;;;6218100;23;20231;-73
2023/04/18 11:53:33;;;;;;;11.68;10.48;;;11.20;99.90;;;;;;6217428;23;20192;-74
2023/04/18 11:56:02;;;;;;;13.18;10.80;;;11.20;99.90;;;;;;6219471;23;20184;-73
2023/04/18 11:58:32;;;;;;;14.18;11.35;;;11.40;99.90;;;;;;6219340;23;20177;-74
2023/04/18 12:01:15;;;;;;;13.75;11.45;;;11.50;99.90;;;;;;6217765;23;20200;-74
2023/04/18 12:03:58;;;;;;;12.40;10.80;;;11.60;99.90;;;;;;6217880;23;20486;-74
2023/04/18 12:06:25;;;;;;;12.57;9.93;;;11.80;99.90;;;;;;6218307;23;20161;-74
2023/04/18 12:08:58;;;;;;;12.32;10.43;;;12.00;99.90;;;;;;6218039;23;20177;-74
2023/04/18 12:11:25;;;;;;;11.57;10.38;;;12.10;99.90;;;;;;6217625;23;20207;-74
2023/04/18 12:13:55;;;;;;;11.27;10.15;;;12.20;99.90;;;;;;6217445;23;20192;-74
2023/04/18 12:16:21;;;;;;;10.68;9.65;;;12.10;99.90;;;;;;6217844;23;20172;-74
2023/04/18 12:18:49;;;;;;;11.45;9.45;;;12.20;99.90;;;;;;6217414;23;20173;-74
2023/04/18 12:21:16;;;;;;;12.38;9.18;;;12.00;99.90;;;;;;6217010;23;20669;-74
2023/04/18 12:23:45;;;;;;;10.82;9.73;;;12.10;99.90;;;;;;6217775;23;20251;-75
2023/04/18 12:26:13;;;;;;;10.82;9.05;;;12.20;99.90;;;;;;6217365;23;20173;-75
2023/04/18 12:28:44;;;;;;;9.93;8.93;;;12.30;99.90;;;;;;6217270;23;20180;-74
2023/04/18 12:31:11;;;;;;;11.30;9.63;;;12.40;99.90;;;;;;6218440;23;20197;-73
2023/04/18 12:33:44;;;;;;;9.60;8.65;;;12.50;99.90;;;;;;6218091;23;20564;-74
2023/04/18 12:36:12;;;;;;;9.82;8.75;;;12.50;99.90;;;;;;6217290;23;20161;-74
2023/04/18 12:38:38;;;;;;;9.80;8.80;;;12.70;99.90;;;;;;6217353;23;20163;-74
2023/04/18 12:41:05;;;;;;;9.90;8.90;;;12.70;99.90;;;;;;6217870;23;20192;-73
2023/04/18 12:43:32;;;;;;;10.18;8.98;;;12.50;99.90;;;;;;6216824;23;20179;-73
2023/04/18 12:46:00;;;;;;;9.95;8.25;;;12.60;99.90;;;;;;6217275;23;20255;-73
2023/04/18 12:48:26;;;;;;;9.48;8.52;;;12.90;99.90;;;;;;6216527;23;20161;-73
2023/04/18 12:50:53;;;;;;;9.45;8.52;;;13.00;99.90;;;;;;6216955;23;20192;-73
2023/04/18 12:53:21;;;;;;;9.75;8.75;;;13.10;99.90;;;;;;6217941;23;20247;-73
2023/04/18 12:55:48;;;;;;;10.50;8.27;;;12.90;99.90;;;;;;6217124;23;20173;-73
2023/04/18 12:58:17;;;;;;;10.18;8.55;;;13.10;99.90;;;;;;6217133;23;20172;-73
2023/04/18 13:00:44;;;;;;;10.15;8.50;;;13.10;99.90;;;;;;6216957;23;20197;-73
2023/04/18 13:03:10;;;;;;;9.65;8.43;;;13.00;99.90;;;;;;6216649;23;20268;-73
2023/04/18 13:05:37;;;;;;;8.93;7.95;;;13.00;99.90;;;;;;6217064;23;20251;-73
2023/04/18 13:08:04;;;;;;;9.43;8.43;;;13.20;99.90;;;;;;6216861;23;20173;-73
2023/04/18 13:10:32;;;;;;;8.43;7.50;;;13.40;99.90;;;;;;6216747;23;20319;-73
2023/04/18 13:12:59;;;;;;;9.93;7.75;;;13.70;99.90;;;;;;6216475;23;20603;-73
2023/04/18 13:15:26;;;;;;;10.20;9.10;;;13.70;99.90;;;;;;6216763;23;20198;-73
2023/04/18 13:17:53;;;;;;;9.10;8.20;;;13.70;99.90;;;;;;6216727;23;20173;-73
2023/04/18 13:20:19;;;;;;;13.23;7.75;;;13.60;99.90;;;;;;6217020;23;20168;-73
2023/04/18 14:09:24;;;;;;;7.55;6.88;;;13.70;99.90;;;;;;6209132;22;20203;-72
2023/04/18 14:11:51;;;;;;;9.27;6.95;;;13.70;99.90;;;;;;6221495;23;20192;-71
2023/04/18 14:14:18;;;;;;;6.55;5.97;;;13.60;99.90;;;;;;6220239;23;20525;-71
2023/04/18 14:16:45;;;;;;;6.15;5.57;;;13.50;99.90;;;;;;6220058;23;20188;-73
2023/04/18 14:19:12;;;;;;;6.88;5.55;;;13.40;99.90;;;;;;6221166;23;20200;-73
2023/04/18 14:21:39;;;;;;;6.72;6.13;;;13.40;99.90;;;;;;6222599;23;20176;-74
2023/04/18 14:24:08;;;;;;;7.00;6.32;;;13.30;99.90;;;;;;6220976;23;20169;-74
2023/04/18 14:26:36;;;;;;;6.25;5.75;;;13.30;99.90;;;;;;6218977;23;20173;-74
2023/04/18 14:29:04;;;;;;;6.45;5.78;;;13.30;99.90;;;;;;6220519;23;20250;-73
2023/04/18 14:31:31;;;;;;;6.32;5.60;;;13.30;99.90;;;;;;6222761;23;20177;-73
2023/04/18 14:33:58;;;;;;;6.75;6.07;;;13.20;99.90;;;;;;6222538;23;20295;-73
2023/04/18 14:36:26;;;;;;;7.93;5.72;;;13.10;99.90;;;;;;6222489;23;20172;-75
2023/04/18 14:38:54;;;;;;;8.60;6.53;;;13.00;99.90;;;;;;6221509;23;20197;-76
2023/04/18 14:41:22;;;;;;;8.85;6.25;;;12.80;99.90;;;;;;6220778;23;20176;-74
2023/04/18 14:43:51;;;;;;;6.25;5.68;;;12.80;99.90;;;;;;6222177;23;20169;-75
2023/04/18 14:46:18;;;;;;;7.75;6.95;;;13.10;99.90;;;;;;6222753;23;20185;-75
2023/04/18 14:48:46;;;;;;;7.00;6.30;;;13.10;99.90;;;;;;6222925;23;20196;-74
2023/04/18 14:51:14;;;;;;;7.78;6.47;;;13.10;99.90;;;;;;6221652;23;20177;-75
2023/04/18 14:53:41;;;;;;;5.55;5.05;;;13.10;99.90;;;;;;6219170;23;20793;-75
2023/04/18 14:56:08;;;;;;;7.28;5.80;;;13.00;99.90;;;;;;6218925;23;20251;-75
2023/04/18 14:58:36;;;;;;;5.70;5.20;;;12.70;99.90;;;;;;6220382;23;20224;-74
2023/04/18 15:01:05;;;;;;;5.28;4.80;;;12.60;99.90;;;;;;6221678;23;20173;-74
2023/04/18 15:03:32;;;;;;;5.97;5.47;;;12.50;99.90;;;;;;6217170;23;20181;-74
2023/04/18 15:05:59;;;;;;;6.30;5.70;;;12.70;99.90;;;;;;6221907;23;20532;-74
2023/04/18 15:08:26;;;;;;;5.85;5.35;;;12.80;99.90;;;;;;6221626;23;20188;-74
2023/04/18 15:10:54;;;;;;;6.38;5.43;;;12.80;99.90;;;;;;6222927;23;20497;-75
2023/04/18 15:13:21;;;;;;;5.95;5.45;;;12.80;99.90;;;;;;6222630;23;20208;-75
2023/04/18 15:15:55;;;;;;;7.03;5.53;;;12.70;99.90;;;;;;6218267;23;20176;-75
2023/04/18 15:18:23;;;;;;;5.93;5.40;;;12.60;99.90;;;;;;6219139;23;20184;-74
2023/04/18 15:20:50;;;;;;;6.47;5.50;;;12.50;99.90;;;;;;6218826;23;20180;-75
2023/04/18 15:23:17;;;;;;;5.78;5.28;;;12.40;99.90;;;;;;6218021;23;20638;-74
2023/04/18 15:25:45;;;;;;;5.57;5.07;;;12.30;99.90;;;;;;6218452;23;20509;-74
2023/04/18 15:28:12;;;;;;;8.18;6.25;;;12.30;99.90;;;;;;6218330;23;20199;-74
2023/04/18 15:30:39;;;;;;;5.97;5.07;;;12.40;99.90;;;;;;6219706;23;20271;-74
2023/04/18 15:33:05;;;;;;;5.85;5.25;;;12.30;99.90;;;;;;6218158;23;20260;-74
2023/04/18 15:35:33;;;;;;;5.18;4.78;;;12.20;99.90;;;;;;6218047;23;20561;-73
2023/04/18 15:38:00;;;;;;;5.68;5.22;;;12.10;99.90;;;;;;6217915;23;20180;-72
2023/04/18 15:40:27;;;;;;;7.20;4.60;;;12.20;99.90;;;;;;6217698;23;20192;-72
2023/04/18 15:42:54;;;;;;;5.88;5.25;;;12.20;99.90;;;;;;6217883;23;20180;-72
2023/04/18 15:45:21;;;;;;;7.63;5.65;;;12.20;99.90;;;;;;6218130;23;20169;-72
2023/04/18 15:47:48;;;;;;;5.97;5.47;;;12.20;99.90;;;;;;6217974;23;20176;-72
2023/04/18 15:50:15;;;;;;;5.32;4.82;;;12.20;99.90;;;;;;6217584;23;20232;-72
2023/04/18 15:52:44;;;;;;;5.13;4.70;;;12.10;99.90;;;;;;6217999;23;20187;-72
2023/04/18 15:55:11;;;;;;;5.28;4.78;;;12.20;99.90;;;;;;6217745;23;20673;-72
2023/04/18 15:57:38;;;;;;;5.20;4.70;;;12.20;99.90;;;;;;6218136;23;20176;-72
2023/04/18 16:00:09;;;;;;;4.97;4.57;;;12.30;99.90;;;;;;6218179;23;20192;-73
2023/04/18 16:02:36;;;;;;;5.15;4.70;;;12.30;99.90;;;;;;6217822;23;20203;-73
2023/04/18 16:05:03;;;;;;;5.32;4.82;;;12.30;99.90;;;;;;6217706;23;20176;-73
2023/04/18 16:07:30;;;;;;;5.63;4.63;;;12.30;99.90;;;;;;6217659;23;20173;-73
2023/04/18 16:10:01;;;;;;;5.55;5.05;;;12.20;99.90;;;;;;6218908;23;20192;-73
2023/04/18 16:12:28;;;;;;;4.93;4.55;;;12.10;99.90;;;;;;6217544;23;20267;-73
2023/04/18 16:14:54;;;;;;;5.20;4.63;;;12.10;99.90;;;;;;6217569;23;20219;-73
2023/04/18 16:17:21;;;;;;;4.78;4.47;;;12.00;99.90;;;;;;6238122;23;20187;-73
2023/04/18 16:19:48;;;;;;;7.18;5.97;;;11.90;99.90;;;;;;6244275;22;20189;-73
2023/04/18 16:22:14;;;;;;;6.00;5.50;;;12.00;99.90;;;;;;6244683;22;20224;-73
2023/04/18 16:24:41;;;;;;;6.15;5.65;;;11.80;99.90;;;;;;6245254;22;20206;-73
2023/04/18 16:27:09;;;;;;;5.90;5.30;;;11.60;99.90;;;;;;6228114;23;20623;-72
2023/04/18 16:29:36;;;;;;;9.18;6.03;;;11.50;99.90;;;;;;6217957;23;20200;-73
2023/04/18 16:32:02;;;;;;;6.60;5.95;;;11.30;99.90;;;;;;6217945;23;20188;-72
2023/04/18 16:34:29;;;;;;;6.35;5.75;;;11.30;99.90;;;;;;6217283;23;20193;-72
2023/04/18 16:36:56;;;;;;;6.15;5.55;;;11.30;99.90;;;;;;6217396;23;20179;-72
2023/04/18 16:39:23;;;;;;;5.65;5.15;;;11.40;99.90;;;;;;6217284;23;20196;-72
2023/04/18 16:41:50;;;;;;;5.40;5.00;;;11.40;99.90;;;;;;6217640;23;20177;-73
2023/04/18 16:44:18;;;;;;;5.93;5.20;;;11.40;99.90;;;;;;6217351;23;20223;-72
2023/04/18 16:46:45;;;;;;;6.55;5.93;;;11.30;99.90;;;;;;6217322;23;20179;-72
2023/04/18 16:49:12;;;;;;;5.65;5.10;;;11.30;99.90;;;;;;6217426;23;20196;-72
2023/04/18 16:51:39;;;;;;;5.53;5.03;;;11.20;99.90;;;;;;6217975;23;20177;-73
2023/04/18 16:54:07;;;;;;;6.13;5.57;;;11.20;99.90;;;;;;6217494;23;20228;-72
2023/04/18 16:56:34;;;;;;;5.70;5.20;;;11.20;99.90;;;;;;6219122;23;20173;-73
2023/04/18 16:59:01;;;;;;;5.63;5.13;;;11.10;99.90;;;;;;6218391;23;20199;-73
2023/04/18 17:01:29;;;;;;;6.20;5.60;;;11.10;99.90;;;;;;6225364;23;20326;-73
2023/04/18 17:03:57;;;;;;;7.30;5.80;;;11.10;99.90;;;;;;6243391;23;20183;-73
2023/04/18 17:06:24;;;;;;;6.15;5.55;;;11.10;99.90;;;;;;6218382;23;20177;-73
2023/04/18 17:08:52;;;;;;;6.28;5.60;;;11.10;99.90;;;;;;6218259;23;20220;-73
2023/04/18 17:11:19;;;;;;;6.20;5.60;;;11.00;99.90;;;;;;6217500;23;20187;-73
2023/04/18 17:13:45;;;;;;;5.50;5.00;;;11.00;99.90;;;;;;6218096;23;20157;-73
2023/04/18 17:16:12;;;;;;;5.55;5.05;;;11.00;99.90;;;;;;6217228;23;20197;-73
2023/04/18 17:18:40;;;;;;;6.15;5.22;;;11.00;99.90;;;;;;6217081;23;20207;-73
2023/04/18 17:21:11;;;;;;;6.25;5.65;;;10.90;99.90;;;;;;6217314;23;20179;-72
2023/04/18 17:23:38;;;;;;;5.53;4.97;;;10.80;99.90;;;;;;6216505;23;20613;-73
2023/04/18 17:26:04;;;;;;;7.13;5.47;;;10.80;99.90;;;;;;6216452;23;20626;-73
2023/04/18 17:28:31;;;;;;;6.28;5.65;;;10.70;99.90;;;;;;6217015;23;20177;-73